Station History

Weather Underground - logo

Station Historical Data
Daily Summary for January 26, 2018 Units:  Metric    English   Both
« Previous Day
Next Day »
Daily Weekly Monthly Yearly Custom
  High: Low: Average:
Temperature: -17.8 °C 0.9 °C 6.7 °C
Dew Point: -17.8 °C -0.3 °C 3.2 °C
Humidity: Humidity % 50 % 80 %
Wind Speed: 0 km/h 0 km/h 1.1 km/h
Wind Gust: 0 km/h - -
Wind:- - South
Pressure: 0 hPa 1024.3 hPa -
Precipitation: 0 mm    
Historical Graphs
 
 
Tabular Data for January 26, 2018
Time Temperature Dew Point Pressure Wind Wind Speed Wind Gust Humidity Rainfall Rate (Hourly)
-17.8 °C -17.8 °C 0 hPa Calm     Humidity % 0 mm
00:00 3 °C 1.5 °C 1024.3 hPa Calm     90 % 0 mm
00:05 2.9 °C 1.6 °C 1024.3 hPa Calm     91 % 0 mm
00:10 2.8 °C 1.5 °C 1024.3 hPa Calm     91 % 0 mm
00:15 2.8 °C 1.4 °C 1024.3 hPa Calm     91 % 0 mm
00:20 2.7 °C 1.3 °C 1024.3 hPa Calm     91 % 0 mm
00:25 2.5 °C 1.2 °C 1024.3 hPa Calm     91 % 0 mm
00:30 2.3 °C 0.9 °C 1024.3 hPa Calm     91 % 0 mm
00:35 2.3 °C 1.1 °C 1024.3 hPa Calm     92 % 0 mm
00:40 2.2 °C 1.1 °C 1024.3 hPa Calm     92 % 0 mm
00:45 2.2 °C 1.1 °C 1024.3 hPa Calm     92 % 0 mm
00:51 2.3 °C 1.3 °C 1024.6 hPa Calm     93 % 0 mm
00:56 2.3 °C 1.3 °C 1024.6 hPa Calm     93 % 0 mm
01:01 2.4 °C 1.4 °C 1024.6 hPa Calm     93 % 0 mm
01:06 2.4 °C 1.4 °C 1024.6 hPa Calm     93 % 0 mm
01:11 2.5 °C 1.5 °C 1024.6 hPa East 1.9 km/h   93 % 0 mm
01:16 2.6 °C 1.6 °C 1024.6 hPa Calm     93 % 0 mm
01:21 2.6 °C 1.6 °C 1024.6 hPa Calm     93 % 0 mm
01:26 2.6 °C 1.6 °C 1024.6 hPa Calm     93 % 0 mm
01:31 2.5 °C 1.3 °C 1024.6 hPa Calm     92 % 0 mm
01:36 2.5 °C 1.3 °C 1024.6 hPa Calm     92 % 0 mm
01:41 2.5 °C 1.3 °C 1024.9 hPa Calm     92 % 0 mm
01:46 2.6 °C 1.4 °C 1024.9 hPa Calm     92 % 0 mm
01:51 2.4 °C 1.3 °C 1024.9 hPa Calm     92 % 0 mm
01:56 2.3 °C 0.9 °C 1024.9 hPa Calm     91 % 0 mm
02:01 2.3 °C 1.1 °C 1024.9 hPa Calm     92 % 0 mm
02:06 2.2 °C 1.1 °C 1024.9 hPa East 11.1 km/h 11.1 km/h 92 % 0 mm
02:11 2.3 °C 1.3 °C 1024.9 hPa Calm     93 % 0 mm
02:16 2.2 °C 1.1 °C 1024.9 hPa Calm     92 % 0 mm
02:21 2.2 °C 1 °C 1024.9 hPa Calm     92 % 0 mm
02:26 2.1 °C 0.9 °C 1024.9 hPa Calm     92 % 0 mm
02:31 2 °C 0.8 °C 1024.9 hPa Calm     92 % 0 mm
02:36 1.8 °C 0.7 °C 1024.9 hPa Calm     92 % 0 mm
02:41 1.7 °C 0.6 °C 1024.9 hPa Calm     92 % 0 mm
02:46 1.8 °C 0.8 °C 1024.9 hPa Calm     93 % 0 mm
02:51 2 °C 1 °C 1024.9 hPa Calm     93 % 0 mm
02:56 2.2 °C 1.2 °C 1024.9 hPa Calm     93 % 0 mm
03:01 2.3 °C 1.3 °C 1024.9 hPa Calm     93 % 0 mm
03:06 2.2 °C 1.1 °C 1024.9 hPa Calm     92 % 0 mm
03:11 2.2 °C 1 °C 1024.9 hPa Calm     92 % 0 mm
03:16 2.1 °C 0.7 °C 1024.9 hPa Calm     91 % 0 mm
03:21 2 °C 0.7 °C 1024.9 hPa Calm     91 % 0 mm
03:26 1.9 °C 0.6 °C 1024.9 hPa Calm     91 % 0 mm
03:31 1.7 °C 0.4 °C 1024.9 hPa Calm     91 % 0 mm
03:36 1.6 °C 0.3 °C 1024.9 hPa Calm     91 % 0 mm
03:41 1.6 °C 0.2 °C 1025.3 hPa Calm     91 % 0 mm
03:46 1.5 °C 0.3 °C 1025.3 hPa Calm     92 % 0 mm
03:51 1.5 °C 0.3 °C 1025.3 hPa Calm     92 % 0 mm
03:56 1.5 °C 0.3 °C 1025.3 hPa Calm     92 % 0 mm
04:01 1.6 °C 0.4 °C 1025.3 hPa Calm     92 % 0 mm
04:06 1.7 °C 0.5 °C 1025.3 hPa Calm     92 % 0 mm
04:11 1.6 °C 0.4 °C 1025.3 hPa Calm     92 % 0 mm
04:16 1.6 °C 0.4 °C 1025.3 hPa Calm     92 % 0 mm
04:21 1.6 °C 0.4 °C 1025.3 hPa Calm     92 % 0 mm
04:26 1.7 °C 0.5 °C 1025.3 hPa Calm     92 % 0 mm
04:31 1.8 °C 0.7 °C 1025.6 hPa Calm     92 % 0 mm
04:36 1.9 °C 0.7 °C 1025.3 hPa Calm     92 % 0 mm
04:41 1.8 °C 0.7 °C 1025.6 hPa East 1.6 km/h   92 % 0 mm
04:46 1.9 °C 0.7 °C 1025.6 hPa Calm     92 % 0 mm
04:51 1.9 °C 0.7 °C 1025.6 hPa Calm     92 % 0 mm
04:56 1.9 °C 0.7 °C 1025.6 hPa Calm     92 % 0 mm
05:01 1.7 °C 0.4 °C 1025.6 hPa Calm     91 % 0 mm
05:06 1.6 °C 0.4 °C 1025.6 hPa Calm     92 % 0 mm
05:11 1.6 °C 0.4 °C 1026 hPa Calm     92 % 0 mm
05:16 1.7 °C 0.5 °C 1026 hPa Calm     92 % 0 mm
05:21 1.6 °C 0.4 °C 1026 hPa Calm     92 % 0 mm
05:26 1.4 °C 0.2 °C 1026 hPa Calm     92 % 0 mm
05:31 1.3 °C 0.2 °C 1026 hPa Calm     92 % 0 mm
05:36 1.3 °C 0.1 °C 1026.3 hPa Calm     92 % 0 mm
05:41 1.2 °C 0 °C 1026.3 hPa Calm     92 % 0 mm
05:46 1.2 °C 0.2 °C 1026.3 hPa Calm     93 % 0 mm
05:51 1.1 °C 0.1 °C 1026.3 hPa Calm     93 % 0 mm
05:56 1.3 °C 0.3 °C 1026.3 hPa Calm     93 % 0 mm
06:01 1.6 °C 0.7 °C 1026.3 hPa Calm     94 % 0 mm
06:06 1.7 °C 0.7 °C 1026.3 hPa Calm     93 % 0 mm
06:11 1.7 °C 0.7 °C 1026.6 hPa Calm     93 % 0 mm
06:16 1.7 °C 0.5 °C 1026.6 hPa Calm     92 % 0 mm
06:21 1.4 °C 0.1 °C 1026.6 hPa Calm   0.2 km/h 91 % 0 mm
06:26 1.3 °C 0.2 °C 1026.6 hPa Calm     92 % 0 mm
06:32 1.3 °C 0.1 °C 1026.6 hPa Calm     92 % 0 mm
06:37 1.3 °C 0.1 °C 1027 hPa East 1.6 km/h 1.6 km/h 92 % 0 mm
06:42 1.3 °C 0.1 °C 1027 hPa Calm     92 % 0 mm
06:47 1.3 °C 0.2 °C 1027 hPa Calm     92 % 0 mm
06:52 1.3 °C 0.1 °C 1027 hPa East 1.9 km/h 1.9 km/h 92 % 0 mm
06:57 1.2 °C 0 °C 1027.3 hPa Calm     92 % 0 mm
07:02 1.1 °C -0.2 °C 1027.3 hPa Calm     91 % 0 mm
07:07 1 °C -0.3 °C 1027.3 hPa Calm     91 % 0 mm
07:12 0.9 °C -0.2 °C 1027.3 hPa Calm     92 % 0 mm
07:17 1.1 °C -0.1 °C 1027.3 hPa Calm     92 % 0 mm
07:22 1.3 °C 0.1 °C 1027.3 hPa East 1.9 km/h   92 % 0 mm
07:27 1.4 °C 0.3 °C 1027.7 hPa Calm     92 % 0 mm
07:32 1.7 °C 0.7 °C 1027.7 hPa Calm     93 % 0 mm
07:37 1.9 °C 0.9 °C 1028 hPa East 1.9 km/h   93 % 0 mm
07:42 2.1 °C 1.1 °C 1028 hPa East 1.9 km/h   93 % 0 mm
07:47 2.2 °C 1.1 °C 1028 hPa Calm     92 % 0 mm
07:52 2.4 °C 1.2 °C 1028 hPa East 1.6 km/h   92 % 0 mm
07:57 2.6 °C 1.6 °C 1028 hPa East 1.9 km/h 1.9 km/h 93 % 0 mm
08:02 2.9 °C 1.8 °C 1028 hPa East 1.9 km/h   92 % 0 mm
08:07 3.3 °C 2.2 °C 1028.3 hPa East 1.9 km/h   92 % 0 mm
08:12 3.7 °C 2.6 °C 1028.3 hPa East 1.9 km/h 1.9 km/h 92 % 0 mm
08:17 4.1 °C 2.7 °C 1028.3 hPa SE 1.9 km/h 1.9 km/h 91 % 0 mm
08:22 4.3 °C 3 °C 1028.3 hPa Calm     91 % 0 mm
08:27 4.8 °C 3.4 °C 1028.7 hPa SE 1.9 km/h   91 % 0 mm
08:32 5.1 °C 3.6 °C 1028.7 hPa SE 1.9 km/h   90 % 0 mm
08:37 5.4 °C 3.9 °C 1028.7 hPa SE 1.9 km/h 1.9 km/h 90 % 0 mm
08:42 5.6 °C 3.9 °C 1028.7 hPa ESE 3.7 km/h 3.7 km/h 89 % 0 mm
08:47 5.9 °C 4.2 °C 1028.7 hPa ESE 5.6 km/h 5.6 km/h 89 % 0 mm
08:52 6.1 °C 4.4 °C 1029 hPa SE 3.7 km/h 3.7 km/h 89 % 0 mm
08:57 6.3 °C 4.5 °C 1029 hPa East 3.7 km/h 3.7 km/h 88 % 0 mm
09:02 6.6 °C 4.6 °C 1029 hPa ESE 5.6 km/h 5.6 km/h 87 % 0 mm
09:07 6.6 °C 4.6 °C 1029 hPa SSE 3.7 km/h 3.7 km/h 87 % 0 mm
09:12 6.7 °C 4.7 °C 1029 hPa ENE 1.9 km/h 1.9 km/h 87 % 0 mm
09:17 6.9 °C 4.9 °C 1029 hPa South 3.7 km/h 3.7 km/h 87 % 0 mm
09:22 7.1 °C 4.9 °C 1029 hPa SE 3.7 km/h 3.7 km/h 86 % 0 mm
09:27 7.1 °C 4.9 °C 1029.3 hPa SSE 1.9 km/h 1.9 km/h 86 % 0 mm
09:32 7.4 °C 5.3 °C 1029 hPa SE 3.7 km/h 3.7 km/h 86 % 0 mm
09:37 7.6 °C 5.2 °C 1029.3 hPa ENE 7.4 km/h 7.4 km/h 85 % 0 mm
09:42 7.8 °C 5.6 °C 1029.3 hPa ESE 3.7 km/h 3.7 km/h 86 % 0 mm
09:47 8.2 °C 5.8 °C 1029.3 hPa SSE 6.4 km/h 6.4 km/h 85 % 0 mm
09:52 8.4 °C 5.9 °C 1029.7 hPa NE 7.4 km/h 7.4 km/h 84 % 0 mm
09:57 8.6 °C 5.9 °C 1029.7 hPa SSE 5.6 km/h 5.6 km/h 83 % 0 mm
10:02 8.8 °C 6.1 °C 1029.7 hPa SE 3.7 km/h 3.7 km/h 83 % 0 mm
10:07 9 °C 5.9 °C 1029.7 hPa South 5.6 km/h 5.6 km/h 81 % 0 mm
10:12 9.3 °C 6.2 °C 1029.7 hPa ENE 5.6 km/h 5.6 km/h 81 % 0 mm
10:17 9.5 °C 6.2 °C 1029.7 hPa SE 3.7 km/h 3.7 km/h 80 % 0 mm
10:22 9.8 °C 6.6 °C 1029.7 hPa ENE 1.9 km/h 1.9 km/h 80 % 0 mm
10:27 10.2 °C 6.7 °C 1029.7 hPa SE 1.9 km/h   79 % 0 mm
10:32 10.4 °C 6.6 °C 1029.7 hPa Calm     77 % 0 mm
10:37 10.6 °C 6.6 °C 1029.7 hPa SSE 5.6 km/h 5.6 km/h 76 % 0 mm
10:42 10.8 °C 6.7 °C 1029.7 hPa SE 3.7 km/h 3.7 km/h 76 % 0 mm
10:47 10.8 °C 6.5 °C 1029.7 hPa SSW 5.6 km/h 5.6 km/h 75 % 0 mm
10:52 11.1 °C 6.6 °C 1029.7 hPa SSE 3.7 km/h 3.7 km/h 74 % 0 mm
10:57 11.1 °C 6.8 °C 1029.7 hPa South 1.9 km/h 1.9 km/h 75 % 0 mm
11:02 11.2 °C 6.6 °C 1029.7 hPa SSE 5.6 km/h 5.6 km/h 73 % 0 mm
11:07 11.2 °C 6.8 °C 1029.7 hPa NE 3.7 km/h   74 % 0 mm
11:12 11.4 °C 6.7 °C 1029.7 hPa ESE 5.6 km/h   73 % 0 mm
11:17 11.6 °C 6.9 °C 1029.7 hPa SSE 3.7 km/h   73 % 0 mm
11:22 11.8 °C 6.7 °C 1029.7 hPa Calm     71 % 0 mm
11:27 11.8 °C 6.6 °C 1029.3 hPa SE 3.7 km/h 3.7 km/h 70 % 0 mm
11:32 11.9 °C 6.8 °C 1029.3 hPa SE 1.9 km/h   71 % 0 mm
11:37 12.1 °C 6.8 °C 1029.3 hPa SE 5.6 km/h 5.6 km/h 70 % 0 mm
11:42 12.1 °C 6.3 °C 1029 hPa NW 1.9 km/h 1.9 km/h 68 % 0 mm
11:47 11.9 °C 6.7 °C 1029 hPa NNW 1.9 km/h 1.9 km/h 70 % 0 mm
11:52 12.2 °C 6.8 °C 1029 hPa ENE 5.6 km/h 5.6 km/h 70 % 0 mm
11:58 12.2 °C 6.3 °C 1029 hPa NNW 3.7 km/h 3.7 km/h 67 % 0 mm
12:02 12.2 °C 6.7 °C 1028.7 hPa SE 5.6 km/h 5.6 km/h 69 % 0 mm
12:07 12.3 °C 6.6 °C 1028.7 hPa NNW 3.7 km/h 3.7 km/h 68 % 0 mm
12:12 12.2 °C 6 °C 1028.3 hPa NNW 3.7 km/h 3.7 km/h 66 % 0 mm
12:17 12.2 °C 6.3 °C 1028.3 hPa ENE 5.6 km/h 5.6 km/h 67 % 0 mm
12:23 12.5 °C 6.3 °C 1028.3 hPa Calm     66 % 0 mm
12:28 12.7 °C 6.5 °C 1028.3 hPa NW 1.9 km/h 1.9 km/h 66 % 0 mm
12:33 12.7 °C 6.7 °C 1028 hPa Calm     67 % 0 mm
12:38 12.7 °C 6.3 °C 1028 hPa WNW 1.9 km/h 1.9 km/h 65 % 0 mm
12:43 12.8 °C 6.4 °C 1028 hPa West 3.7 km/h 3.7 km/h 65 % 0 mm
12:48 12.7 °C 6.5 °C 1028 hPa West 3.7 km/h 3.7 km/h 66 % 0 mm
12:53 12.8 °C 6.6 °C 1028 hPa SSE 3.7 km/h 3.7 km/h 66 % 0 mm
12:58 13.2 °C 6.5 °C 1027.7 hPa ESE 1.6 km/h 1.6 km/h 64 % 0 mm
13:03 13.3 °C 6.4 °C 1027.7 hPa WNW 3.7 km/h 3.7 km/h 63 % 0 mm
13:08 13.2 °C 6.3 °C 1027.7 hPa WSW 3.7 km/h 3.7 km/h 63 % 0 mm
13:13 13.2 °C 6.6 °C 1027.3 hPa WNW 1.6 km/h 1.6 km/h 64 % 0 mm
13:18 13.3 °C 6.2 °C 1027.3 hPa West 1.9 km/h 1.9 km/h 62 % 0 mm
13:23 13.7 °C 7.1 °C 1027.3 hPa Calm     64 % 0 mm
13:28 14.1 °C 6.7 °C 1027.3 hPa East 3.7 km/h 3.7 km/h 61 % 0 mm
13:33 14.3 °C 6.2 °C 1027.3 hPa West 3.7 km/h 3.7 km/h 58 % 0 mm
13:38 14.1 °C 5.7 °C 1027.3 hPa Calm     57 % 0 mm
13:43 14.2 °C 6.1 °C 1027 hPa Calm     58 % 0 mm
13:48 14.1 °C 5.9 °C 1027.3 hPa NW 3.7 km/h 3.7 km/h 58 % 0 mm
13:53 14.1 °C 5.7 °C 1027 hPa WSW 1.9 km/h   57 % 0 mm
13:58 14.2 °C 5.8 °C 1027 hPa ESE 5.6 km/h 5.6 km/h 57 % 0 mm
14:03 14.4 °C 5.5 °C 1027 hPa Calm   0.2 km/h 55 % 0 mm
14:08 14.3 °C 5.4 °C 1027 hPa East 1.9 km/h 1.9 km/h 55 % 0 mm
14:13 14.2 °C 5.1 °C 1027 hPa NW 3.7 km/h 3.7 km/h 54 % 0 mm
14:18 13.9 °C 5.1 °C 1027 hPa West 3.7 km/h 3.7 km/h 55 % 0 mm
14:23 13.8 °C 4.9 °C 1027 hPa NW 1.9 km/h 1.9 km/h 55 % 0 mm
14:28 13.9 °C 5.5 °C 1027 hPa SSW 3.7 km/h 3.7 km/h 57 % 0 mm
14:33 14.1 °C 4.9 °C 1027 hPa ESE 1.9 km/h 1.9 km/h 54 % 0 mm
14:38 14.1 °C 5.7 °C 1027 hPa SSE 5.6 km/h 5.6 km/h 57 % 0 mm
14:43 14.1 °C 4.9 °C 1027 hPa Calm     54 % 0 mm
14:48 14.2 °C 5.2 °C 1027 hPa South 1.9 km/h   55 % 0 mm
14:53 14.2 °C 5.1 °C 1027 hPa Calm     54 % 0 mm
14:58 13.9 °C 4.8 °C 1027 hPa NW 3.7 km/h   54 % 0 mm
15:03 13.8 °C 5.2 °C 1027 hPa Calm     56 % 0 mm
15:08 13.9 °C 5.3 °C 1026.6 hPa NW 1.9 km/h   56 % 0 mm
15:13 13.9 °C 5.3 °C 1027 hPa SSE 1.9 km/h 1.9 km/h 56 % 0 mm
15:18 13.9 °C 4.8 °C 1027 hPa Calm     54 % 0 mm
15:23 13.9 °C 3.9 °C 1027 hPa WNW 1.9 km/h 1.9 km/h 51 % 0 mm
15:28 13.8 °C 3.6 °C 1026.6 hPa NW 1.9 km/h 1.9 km/h 50 % 0 mm
15:33 13.8 °C 3.8 °C 1027 hPa NW 3.7 km/h 3.7 km/h 51 % 0 mm
15:38 13.7 °C 3.8 °C 1027 hPa Calm     51 % 0 mm
15:43 13.6 °C 3.7 °C 1027 hPa NW 1.9 km/h   51 % 0 mm
15:48 13.6 °C 4.2 °C 1027 hPa Calm     53 % 0 mm
15:53 13.5 °C 3.6 °C 1027 hPa Calm     51 % 0 mm
15:58 13.4 °C 3.5 °C 1027 hPa WNW 1.9 km/h 1.9 km/h 51 % 0 mm
16:03 13.4 °C 3.5 °C 1026.6 hPa NNW 1.9 km/h   51 % 0 mm
16:08 13.3 °C 3.7 °C 1026.6 hPa NW 1.6 km/h 1.6 km/h 52 % 0 mm
16:13 13.2 °C 3.3 °C 1026.6 hPa WNW 1.9 km/h   51 % 0 mm
16:18 13.2 °C 3.2 °C 1026.6 hPa Calm     51 % 0 mm
16:23 13.1 °C 3.4 °C 1026.6 hPa Calm     52 % 0 mm
16:28 13.1 °C 3.4 °C 1026.6 hPa NW 1.9 km/h 1.9 km/h 52 % 0 mm
16:33 13.1 °C 3.9 °C 1027 hPa NW 1.9 km/h   54 % 0 mm
16:38 12.9 °C 3.8 °C 1027 hPa Calm     54 % 0 mm
16:43 12.8 °C 4 °C 1027 hPa NW 1.9 km/h 1.9 km/h 55 % 0 mm
16:48 12.8 °C 4.2 °C 1027 hPa NW 3.7 km/h 3.7 km/h 56 % 0 mm
16:53 12.6 °C 4.1 °C 1027 hPa SW 1.9 km/h 1.9 km/h 56 % 0 mm
16:58 12.3 °C 4.2 °C 1027 hPa Calm     58 % 0 mm
17:03 12 °C 4.2 °C 1027 hPa Calm     59 % 0 mm
17:08 11.7 °C 4.4 °C 1027 hPa Calm     61 % 0 mm
17:13 11.4 °C 4.3 °C 1027 hPa Calm     62 % 0 mm
17:18 11.2 °C 4.4 °C 1027 hPa Calm     63 % 0 mm
17:23 10.9 °C 4.3 °C 1026.6 hPa Calm     64 % 0 mm
17:28 10.6 °C 4.3 °C 1027 hPa Calm     65 % 0 mm
17:33 10.3 °C 4.3 °C 1027 hPa Calm     66 % 0 mm
17:38 10.1 °C 4.2 °C 1027 hPa Calm     67 % 0 mm
17:43 9.8 °C 4.2 °C 1027 hPa Calm     68 % 0 mm
17:48 9.6 °C 4.2 °C 1027 hPa Calm     69 % 0 mm
18:03 9.3 °C 4.1 °C 1027.3 hPa Calm     70 % 0 mm
18:08 9.3 °C 4.1 °C 1027.3 hPa Calm     70 % 0 mm
18:13 9.2 °C 4.2 °C 1027.3 hPa Calm     71 % 0 mm
18:18 9.2 °C 4.2 °C 1027.7 hPa Calm     71 % 0 mm
18:23 9.2 °C 4.2 °C 1027.7 hPa Calm     71 % 0 mm
18:24 9.1 °C 4.1 °C 1027.7 hPa Calm     71 % 0 mm
18:29 9.1 °C 4.3 °C 1027.7 hPa Calm     72 % 0 mm
18:34 8.8 °C 4.3 °C 1028 hPa Calm     73 % 0 mm
18:39 8.7 °C 4.3 °C 1028 hPa Calm     74 % 0 mm
18:44 8.6 °C 4.2 °C 1028 hPa Calm     74 % 0 mm
18:49 8.3 °C 4.2 °C 1028 hPa Calm     75 % 0 mm
18:54 8.1 °C 4.3 °C 1028 hPa Calm     77 % 0 mm
18:59 7.9 °C 4.2 °C 1028 hPa Calm     77 % 0 mm
19:04 7.7 °C 4.1 °C 1028 hPa Calm     78 % 0 mm
19:09 7.6 °C 4.2 °C 1028 hPa Calm     79 % 0 mm
19:14 7.4 °C 4.2 °C 1028 hPa Calm     80 % 0 mm
19:19 7.3 °C 4.3 °C 1028 hPa Calm     81 % 0 mm
19:24 7.6 °C 4.5 °C 1028 hPa Calm     81 % 0 mm
19:29 7.6 °C 4.3 °C 1028 hPa Calm     80 % 0 mm
19:34 7.5 °C 4.3 °C 1028 hPa Calm     80 % 0 mm
19:39 7.3 °C 4.1 °C 1028 hPa Calm     80 % 0 mm
19:44 7.2 °C 4.1 °C 1028 hPa Calm     81 % 0 mm
19:49 7 °C 4.1 °C 1028 hPa Calm     82 % 0 mm
19:54 6.9 °C 4.1 °C 1028 hPa Calm     82 % 0 mm
19:59 6.8 °C 4.2 °C 1028 hPa Calm     83 % 0 mm
20:04 6.7 °C 4.1 °C 1028 hPa Calm     83 % 0 mm
20:09 6.4 °C 3.8 °C 1028.3 hPa Calm     83 % 0 mm
20:14 6.3 °C 3.8 °C 1028.3 hPa Calm     84 % 0 mm
20:19 6.1 °C 3.6 °C 1028.3 hPa Calm     84 % 0 mm
20:24 5.8 °C 3.3 °C 1028.3 hPa Calm     84 % 0 mm
20:29 5.7 °C 3.3 °C 1028.3 hPa Calm     85 % 0 mm
20:34 5.6 °C 3.4 °C 1028.3 hPa Calm     86 % 0 mm
20:39 5.4 °C 3.3 °C 1028.3 hPa Calm     86 % 0 mm
20:44 5.3 °C 3.3 °C 1028.3 hPa Calm     87 % 0 mm
20:49 5.3 °C 3.3 °C 1028.7 hPa Calm     87 % 0 mm
20:54 5.2 °C 3.2 °C 1028.7 hPa Calm     87 % 0 mm
20:59 5.1 °C 3.1 °C 1028.7 hPa Calm     87 % 0 mm
21:04 5.2 °C 3.3 °C 1028.7 hPa Calm     88 % 0 mm
21:10 5.1 °C 3.3 °C 1028.7 hPa Calm     88 % 0 mm
21:15 5 °C 3.2 °C 1028.7 hPa Calm     88 % 0 mm
21:20 5.1 °C 3.4 °C 1028.7 hPa Calm     89 % 0 mm
21:25 5.2 °C 3.5 °C 1028.7 hPa Calm     89 % 0 mm
21:30 5.3 °C 3.6 °C 1028.7 hPa Calm     89 % 0 mm
21:35 5.2 °C 3.4 °C 1028.7 hPa West 1.9 km/h   88 % 0 mm
21:40 4.9 °C 3.1 °C 1028.7 hPa Calm     88 % 0 mm
21:45 4.7 °C 3.1 °C 1028.7 hPa Calm     89 % 0 mm
21:50 4.6 °C 2.9 °C 1028.7 hPa Calm     89 % 0 mm
21:55 4.5 °C 3 °C 1028.7 hPa Calm     90 % 0 mm
22:00 4.4 °C 2.9 °C 1028.7 hPa Calm     90 % 0 mm
22:05 4.4 °C 3.1 °C 1028.7 hPa Calm     91 % 0 mm
22:10 4.3 °C 3 °C 1028.7 hPa Calm     91 % 0 mm
22:15 4.3 °C 2.9 °C 1028.7 hPa Calm     91 % 0 mm
22:20 4.2 °C 2.9 °C 1028.7 hPa Calm     91 % 0 mm
22:25 4.2 °C 2.8 °C 1028.7 hPa Calm     91 % 0 mm
22:30 4.1 °C 2.8 °C 1028.7 hPa Calm     91 % 0 mm
22:35 3.9 °C 2.6 °C 1029 hPa Calm     91 % 0 mm
22:40 3.9 °C 2.6 °C 1029 hPa Calm     91 % 0 mm
22:45 4.1 °C 2.9 °C 1029 hPa Calm     92 % 0 mm
22:50 4.2 °C 2.9 °C 1029 hPa Calm     91 % 0 mm
22:55 4.3 °C 2.8 °C 1029 hPa Calm     90 % 0 mm
23:00 4.3 °C 2.8 °C 1029 hPa Calm     90 % 0 mm
23:05 4.3 °C 2.8 °C 1029 hPa Calm     90 % 0 mm
23:10 4.3 °C 2.8 °C 1029 hPa Calm     90 % 0 mm
23:15 4.3 °C 2.8 °C 1029 hPa Calm     90 % 0 mm
23:20 4.3 °C 2.8 °C 1029 hPa North 1.9 km/h 1.9 km/h 90 % 0 mm
23:25 4.3 °C 2.8 °C 1029 hPa North 1.9 km/h 1.9 km/h 90 % 0 mm
23:30 4.3 °C 2.7 °C 1029 hPa Calm     89 % 0 mm
23:35 4.3 °C 2.7 °C 1028.7 hPa North 1.9 km/h   89 % 0 mm
23:40 4.4 °C 2.7 °C 1029 hPa Calm     89 % 0 mm
23:45 4.3 °C 2.8 °C 1029.3 hPa Calm     90 % 0 mm
23:50 4.2 °C 2.6 °C 1029 hPa Calm     89 % 0 mm
23:55 4.1 °C 2.6 °C 1029 hPa Calm     90 % 0 mm
Park Place, Exeter, Tulare County, California, USA
Compliments of Weather Underground - 2.75 mb